sensor_id;sensor_type;location;lat;lon;timestamp;P1;durP1;ratioP1;P2;durP2;ratioP2
32250;SDS011;41295;48.518;9.206;2023-08-06T00:01:44;3.28;;;2.60;;
32250;SDS011;41295;48.518;9.206;2023-08-06T00:03:47;3.50;;;2.88;;
32250;SDS011;41295;48.518;9.206;2023-08-06T00:05:50;6.68;;;2.88;;
32250;SDS011;41295;48.518;9.206;2023-08-06T00:07:54;3.67;;;2.67;;
32250;SDS011;41295;48.518;9.206;2023-08-06T00:09:57;3.60;;;2.65;;
32250;SDS011;41295;48.518;9.206;2023-08-06T00:11:59;3.45;;;2.85;;
32250;SDS011;41295;48.518;9.206;2023-08-06T00:14:02;3.92;;;2.67;;
32250;SDS011;41295;48.518;9.206;2023-08-06T00:16:08;4.18;;;2.88;;
32250;SDS011;41295;48.518;9.206;2023-08-06T00:18:11;2.67;;;2.40;;
32250;SDS011;41295;48.518;9.206;2023-08-06T00:20:14;5.47;;;2.67;;
32250;SDS011;41295;48.518;9.206;2023-08-06T00:22:17;3.28;;;2.80;;
32250;SDS011;41295;48.518;9.206;2023-08-06T00:24:21;3.80;;;2.42;;
32250;SDS011;41295;48.518;9.206;2023-08-06T00:26:23;5.35;;;2.60;;
32250;SDS011;41295;48.518;9.206;2023-08-06T00:28:26;4.47;;;2.92;;
32250;SDS011;41295;48.518;9.206;2023-08-06T00:32:30;8.63;;;3.33;;
32250;SDS011;41295;48.518;9.206;2023-08-06T00:34:33;3.55;;;2.90;;
32250;SDS011;41295;48.518;9.206;2023-08-06T00:36:35;3.78;;;2.53;;
32250;SDS011;41295;48.518;9.206;2023-08-06T00:38:38;5.03;;;3.25;;
32250;SDS011;41295;48.518;9.206;2023-08-06T00:40:42;2.97;;;2.67;;
32250;SDS011;41295;48.518;9.206;2023-08-06T00:42:45;4.57;;;2.47;;
32250;SDS011;41295;48.518;9.206;2023-08-06T00:44:47;5.90;;;2.63;;
32250;SDS011;41295;48.518;9.206;2023-08-06T00:46:50;3.58;;;2.85;;
32250;SDS011;41295;48.518;9.206;2023-08-06T00:48:53;5.45;;;2.70;;
32250;SDS011;41295;48.518;9.206;2023-08-06T00:50:56;3.95;;;2.80;;
32250;SDS011;41295;48.518;9.206;2023-08-06T00:52:59;3.45;;;2.72;;
32250;SDS011;41295;48.518;9.206;2023-08-06T00:55:02;3.38;;;2.40;;
32250;SDS011;41295;48.518;9.206;2023-08-06T00:57:07;3.85;;;2.63;;
32250;SDS011;41295;48.518;9.206;2023-08-06T00:59:11;3.20;;;2.53;;
32250;SDS011;41295;48.518;9.206;2023-08-06T01:01:14;4.90;;;2.55;;
32250;SDS011;41295;48.518;9.206;2023-08-06T01:03:17;2.70;;;2.35;;
32250;SDS011;41295;48.518;9.206;2023-08-06T01:05:20;4.07;;;2.70;;
32250;SDS011;41295;48.518;9.206;2023-08-06T01:07:26;3.47;;;2.53;;
32250;SDS011;41295;48.518;9.206;2023-08-06T01:09:46;5.47;;;2.65;;
32250;SDS011;41295;48.518;9.206;2023-08-06T01:11:58;4.63;;;2.70;;
32250;SDS011;41295;48.518;9.206;2023-08-06T01:14:15;3.75;;;2.30;;
32250;SDS011;41295;48.518;9.206;2023-08-06T01:18:26;4.50;;;1.95;;
32250;SDS011;41295;48.518;9.206;2023-08-06T01:20:30;3.78;;;2.03;;
32250;SDS011;41295;48.518;9.206;2023-08-06T01:22:33;6.03;;;2.20;;
32250;SDS011;41295;48.518;9.206;2023-08-06T01:24:35;3.25;;;2.10;;
32250;SDS011;41295;48.518;9.206;2023-08-06T01:26:39;4.78;;;2.10;;
32250;SDS011;41295;48.518;9.206;2023-08-06T01:28:48;4.03;;;2.25;;
32250;SDS011;41295;48.518;9.206;2023-08-06T01:30:56;4.45;;;1.80;;
32250;SDS011;41295;48.518;9.206;2023-08-06T01:33:04;5.53;;;2.15;;
32250;SDS011;41295;48.518;9.206;2023-08-06T01:35:08;3.63;;;1.95;;
32250;SDS011;41295;48.518;9.206;2023-08-06T01:37:14;6.68;;;2.20;;
32250;SDS011;41295;48.518;9.206;2023-08-06T01:39:17;4.38;;;1.90;;
32250;SDS011;41295;48.518;9.206;2023-08-06T01:41:22;4.70;;;1.95;;
32250;SDS011;41295;48.518;9.206;2023-08-06T01:43:25;4.20;;;1.80;;
32250;SDS011;41295;48.518;9.206;2023-08-06T01:45:26;6.30;;;1.70;;
32250;SDS011;41295;48.518;9.206;2023-08-06T01:47:29;3.78;;;2.20;;
32250;SDS011;41295;48.518;9.206;2023-08-06T01:49:32;1.98;;;1.67;;
32250;SDS011;41295;48.518;9.206;2023-08-06T01:51:34;4.40;;;2.40;;
32250;SDS011;41295;48.518;9.206;2023-08-06T01:53:38;3.05;;;1.98;;
32250;SDS011;41295;48.518;9.206;2023-08-06T01:55:41;5.53;;;1.95;;
32250;SDS011;41295;48.518;9.206;2023-08-06T01:57:43;2.75;;;1.85;;
32250;SDS011;41295;48.518;9.206;2023-08-06T01:59:46;4.50;;;1.80;;
32250;SDS011;41295;48.518;9.206;2023-08-06T02:01:49;5.60;;;1.73;;
32250;SDS011;41295;48.518;9.206;2023-08-06T02:03:52;6.55;;;2.00;;
32250;SDS011;41295;48.518;9.206;2023-08-06T02:05:54;13.00;;;2.47;;
32250;SDS011;41295;48.518;9.206;2023-08-06T02:07:57;4.68;;;2.20;;
32250;SDS011;41295;48.518;9.206;2023-08-06T02:10:01;3.75;;;2.20;;
32250;SDS011;41295;48.518;9.206;2023-08-06T02:12:04;12.30;;;2.67;;
32250;SDS011;41295;48.518;9.206;2023-08-06T02:14:08;5.60;;;2.20;;
32250;SDS011;41295;48.518;9.206;2023-08-06T02:16:11;6.22;;;2.00;;
32250;SDS011;41295;48.518;9.206;2023-08-06T02:18:13;6.82;;;2.28;;
32250;SDS011;41295;48.518;9.206;2023-08-06T02:20:16;6.07;;;2.00;;
32250;SDS011;41295;48.518;9.206;2023-08-06T02:22:19;7.00;;;2.30;;
32250;SDS011;41295;48.518;9.206;2023-08-06T02:24:22;8.48;;;2.35;;
32250;SDS011;41295;48.518;9.206;2023-08-06T02:26:26;5.55;;;2.33;;
32250;SDS011;41295;48.518;9.206;2023-08-06T02:28:28;6.03;;;2.35;;
32250;SDS011;41295;48.518;9.206;2023-08-06T02:30:31;5.50;;;2.00;;
32250;SDS011;41295;48.518;9.206;2023-08-06T02:32:34;5.28;;;2.17;;
32250;SDS011;41295;48.518;9.206;2023-08-06T02:34:37;6.70;;;2.22;;
32250;SDS011;41295;48.518;9.206;2023-08-06T02:36:40;4.95;;;2.28;;
32250;SDS011;41295;48.518;9.206;2023-08-06T02:38:42;3.90;;;1.80;;
32250;SDS011;41295;48.518;9.206;2023-08-06T02:40:45;8.13;;;1.90;;
32250;SDS011;41295;48.518;9.206;2023-08-06T02:42:49;7.13;;;2.00;;
32250;SDS011;41295;48.518;9.206;2023-08-06T02:44:52;5.60;;;2.38;;
32250;SDS011;41295;48.518;9.206;2023-08-06T02:46:53;6.03;;;2.40;;
32250;SDS011;41295;48.518;9.206;2023-08-06T02:48:56;6.53;;;2.08;;
32250;SDS011;41295;48.518;9.206;2023-08-06T02:50:59;6.28;;;2.13;;
32250;SDS011;41295;48.518;9.206;2023-08-06T02:53:01;5.60;;;2.30;;
32250;SDS011;41295;48.518;9.206;2023-08-06T02:55:04;5.00;;;2.15;;
32250;SDS011;41295;48.518;9.206;2023-08-06T02:57:07;4.50;;;2.20;;
32250;SDS011;41295;48.518;9.206;2023-08-06T02:59:11;3.50;;;1.98;;
32250;SDS011;41295;48.518;9.206;2023-08-06T03:01:14;6.25;;;2.63;;
32250;SDS011;41295;48.518;9.206;2023-08-06T03:03:17;5.10;;;2.50;;
32250;SDS011;41295;48.518;9.206;2023-08-06T03:05:19;6.93;;;2.25;;
32250;SDS011;41295;48.518;9.206;2023-08-06T03:07:22;4.15;;;2.20;;
32250;SDS011;41295;48.518;9.206;2023-08-06T03:09:25;5.57;;;2.30;;
32250;SDS011;41295;48.518;9.206;2023-08-06T03:11:27;3.50;;;2.15;;
32250;SDS011;41295;48.518;9.206;2023-08-06T03:13:30;5.85;;;2.13;;
32250;SDS011;41295;48.518;9.206;2023-08-06T03:15:34;4.93;;;1.40;;
32250;SDS011;41295;48.518;9.206;2023-08-06T03:17:36;2.92;;;1.95;;
32250;SDS011;41295;48.518;9.206;2023-08-06T03:19:39;2.35;;;1.45;;
32250;SDS011;41295;48.518;9.206;2023-08-06T03:21:41;5.07;;;1.80;;
32250;SDS011;41295;48.518;9.206;2023-08-06T03:23:46;4.07;;;2.00;;
32250;SDS011;41295;48.518;9.206;2023-08-06T03:25:49;2.60;;;2.00;;
32250;SDS011;41295;48.518;9.206;2023-08-06T03:27:52;5.38;;;1.85;;
32250;SDS011;41295;48.518;9.206;2023-08-06T03:29:54;5.10;;;1.90;;
32250;SDS011;41295;48.518;9.206;2023-08-06T03:31:58;6.55;;;2.13;;
32250;SDS011;41295;48.518;9.206;2023-08-06T03:34:01;4.82;;;1.88;;
32250;SDS011;41295;48.518;9.206;2023-08-06T03:36:03;4.95;;;1.85;;
32250;SDS011;41295;48.518;9.206;2023-08-06T03:38:06;5.07;;;2.10;;
32250;SDS011;41295;48.518;9.206;2023-08-06T03:40:09;5.20;;;1.70;;
32250;SDS011;41295;48.518;9.206;2023-08-06T03:42:12;2.42;;;1.65;;
32250;SDS011;41295;48.518;9.206;2023-08-06T03:44:15;4.05;;;1.58;;
32250;SDS011;41295;48.518;9.206;2023-08-06T03:46:18;2.65;;;1.45;;
32250;SDS011;41295;48.518;9.206;2023-08-06T03:50:23;5.35;;;1.90;;
32250;SDS011;41295;48.518;9.206;2023-08-06T03:52:26;3.63;;;1.65;;
32250;SDS011;41295;48.518;9.206;2023-08-06T03:54:29;4.60;;;1.42;;
32250;SDS011;41295;48.518;9.206;2023-08-06T03:56:32;2.40;;;1.50;;
32250;SDS011;41295;48.518;9.206;2023-08-06T03:58:34;2.80;;;1.50;;
32250;SDS011;41295;48.518;9.206;2023-08-06T04:00:37;3.53;;;1.70;;
32250;SDS011;41295;48.518;9.206;2023-08-06T04:02:40;2.35;;;1.70;;
32250;SDS011;41295;48.518;9.206;2023-08-06T04:04:43;3.85;;;1.70;;
32250;SDS011;41295;48.518;9.206;2023-08-06T04:06:45;2.25;;;1.52;;
32250;SDS011;41295;48.518;9.206;2023-08-06T04:08:48;6.28;;;1.60;;
32250;SDS011;41295;48.518;9.206;2023-08-06T04:12:53;5.15;;;1.65;;
32250;SDS011;41295;48.518;9.206;2023-08-06T04:14:56;5.25;;;1.90;;
32250;SDS011;41295;48.518;9.206;2023-08-06T04:16:59;4.28;;;1.40;;
32250;SDS011;41295;48.518;9.206;2023-08-06T04:19:02;3.53;;;1.60;;
32250;SDS011;41295;48.518;9.206;2023-08-06T04:21:06;4.30;;;2.00;;
32250;SDS011;41295;48.518;9.206;2023-08-06T04:23:09;4.75;;;1.55;;
32250;SDS011;41295;48.518;9.206;2023-08-06T04:25:11;1.92;;;1.15;;
32250;SDS011;41295;48.518;9.206;2023-08-06T04:27:14;2.35;;;1.25;;
32250;SDS011;41295;48.518;9.206;2023-08-06T04:29:17;4.40;;;1.25;;
32250;SDS011;41295;48.518;9.206;2023-08-06T04:31:20;3.97;;;1.67;;
32250;SDS011;41295;48.518;9.206;2023-08-06T04:33:23;6.60;;;1.70;;
32250;SDS011;41295;48.518;9.206;2023-08-06T04:35:26;3.50;;;1.55;;
32250;SDS011;41295;48.518;9.206;2023-08-06T04:37:30;3.45;;;1.58;;
32250;SDS011;41295;48.518;9.206;2023-08-06T04:39:32;2.60;;;1.40;;
32250;SDS011;41295;48.518;9.206;2023-08-06T04:41:35;2.92;;;1.40;;
32250;SDS011;41295;48.518;9.206;2023-08-06T04:43:37;3.05;;;1.58;;
32250;SDS011;41295;48.518;9.206;2023-08-06T04:45:45;3.97;;;1.40;;
32250;SDS011;41295;48.518;9.206;2023-08-06T04:47:48;3.95;;;1.52;;
32250;SDS011;41295;48.518;9.206;2023-08-06T04:49:51;5.18;;;1.48;;
32250;SDS011;41295;48.518;9.206;2023-08-06T04:51:53;4.60;;;1.48;;
32250;SDS011;41295;48.518;9.206;2023-08-06T04:53:57;2.60;;;1.42;;
32250;SDS011;41295;48.518;9.206;2023-08-06T04:55:59;5.30;;;1.35;;
32250;SDS011;41295;48.518;9.206;2023-08-06T04:58:02;4.13;;;1.20;;
32250;SDS011;41295;48.518;9.206;2023-08-06T05:00:07;3.55;;;1.48;;
32250;SDS011;41295;48.518;9.206;2023-08-06T05:02:10;3.63;;;1.40;;
32250;SDS011;41295;48.518;9.206;2023-08-06T05:04:16;3.85;;;1.50;;
32250;SDS011;41295;48.518;9.206;2023-08-06T05:06:18;4.82;;;1.42;;
32250;SDS011;41295;48.518;9.206;2023-08-06T05:08:21;3.30;;;1.30;;
32250;SDS011;41295;48.518;9.206;2023-08-06T05:10:25;1.35;;;1.10;;
32250;SDS011;41295;48.518;9.206;2023-08-06T05:12:28;1.98;;;1.35;;
32250;SDS011;41295;48.518;9.206;2023-08-06T05:14:31;5.22;;;1.20;;
32250;SDS011;41295;48.518;9.206;2023-08-06T05:16:33;3.03;;;1.23;;
32250;SDS011;41295;48.518;9.206;2023-08-06T05:18:36;3.03;;;1.20;;
32250;SDS011;41295;48.518;9.206;2023-08-06T05:20:40;4.95;;;1.20;;
32250;SDS011;41295;48.518;9.206;2023-08-06T05:22:43;3.22;;;1.20;;
32250;SDS011;41295;48.518;9.206;2023-08-06T05:24:46;3.63;;;1.38;;
32250;SDS011;41295;48.518;9.206;2023-08-06T05:26:50;3.35;;;1.00;;
32250;SDS011;41295;48.518;9.206;2023-08-06T05:28:52;2.25;;;1.20;;
32250;SDS011;41295;48.518;9.206;2023-08-06T05:30:55;4.28;;;1.30;;
32250;SDS011;41295;48.518;9.206;2023-08-06T05:32:58;2.10;;;0.95;;
32250;SDS011;41295;48.518;9.206;2023-08-06T05:35:00;3.20;;;1.20;;
32250;SDS011;41295;48.518;9.206;2023-08-06T05:37:04;3.85;;;1.15;;
32250;SDS011;41295;48.518;9.206;2023-08-06T05:39:07;2.33;;;1.10;;
32250;SDS011;41295;48.518;9.206;2023-08-06T05:41:10;3.72;;;1.15;;
32250;SDS011;41295;48.518;9.206;2023-08-06T05:43:14;3.30;;;1.27;;
32250;SDS011;41295;48.518;9.206;2023-08-06T05:45:16;2.22;;;1.13;;
32250;SDS011;41295;48.518;9.206;2023-08-06T05:47:20;3.08;;;1.52;;
32250;SDS011;41295;48.518;9.206;2023-08-06T05:49:22;2.78;;;1.02;;
32250;SDS011;41295;48.518;9.206;2023-08-06T05:51:25;2.03;;;1.00;;
32250;SDS011;41295;48.518;9.206;2023-08-06T05:53:28;1.70;;;1.13;;
32250;SDS011;41295;48.518;9.206;2023-08-06T05:57:34;1.85;;;0.90;;
32250;SDS011;41295;48.518;9.206;2023-08-06T06:01:39;2.30;;;0.70;;
32250;SDS011;41295;48.518;9.206;2023-08-06T06:03:42;2.97;;;1.00;;
32250;SDS011;41295;48.518;9.206;2023-08-06T06:05:44;1.50;;;0.90;;
32250;SDS011;41295;48.518;9.206;2023-08-06T06:07:47;1.90;;;0.75;;
32250;SDS011;41295;48.518;9.206;2023-08-06T06:09:50;2.88;;;0.95;;
32250;SDS011;41295;48.518;9.206;2023-08-06T06:11:52;1.73;;;0.90;;
32250;SDS011;41295;48.518;9.206;2023-08-06T06:13:55;3.35;;;0.70;;
32250;SDS011;41295;48.518;9.206;2023-08-06T06:15:59;1.42;;;0.77;;
32250;SDS011;41295;48.518;9.206;2023-08-06T06:18:02;1.80;;;0.68;;
32250;SDS011;41295;48.518;9.206;2023-08-06T06:20:05;1.98;;;0.77;;
32250;SDS011;41295;48.518;9.206;2023-08-06T06:22:08;4.35;;;0.70;;
32250;SDS011;41295;48.518;9.206;2023-08-06T06:24:10;1.90;;;0.50;;
32250;SDS011;41295;48.518;9.206;2023-08-06T06:26:13;1.15;;;0.60;;
32250;SDS011;41295;48.518;9.206;2023-08-06T06:28:15;2.70;;;0.50;;
32250;SDS011;41295;48.518;9.206;2023-08-06T06:30:18;1.20;;;0.50;;
32250;SDS011;41295;48.518;9.206;2023-08-06T06:32:22;1.20;;;0.50;;
32250;SDS011;41295;48.518;9.206;2023-08-06T06:34:25;2.30;;;0.50;;
32250;SDS011;41295;48.518;9.206;2023-08-06T06:36:27;1.88;;;0.60;;
32250;SDS011;41295;48.518;9.206;2023-08-06T06:38:30;1.85;;;0.65;;
32250;SDS011;41295;48.518;9.206;2023-08-06T06:40:33;2.33;;;0.50;;
32250;SDS011;41295;48.518;9.206;2023-08-06T06:42:35;2.40;;;0.80;;
32250;SDS011;41295;48.518;9.206;2023-08-06T06:44:38;1.08;;;0.50;;
32250;SDS011;41295;48.518;9.206;2023-08-06T06:46:40;1.80;;;0.50;;
32250;SDS011;41295;48.518;9.206;2023-08-06T06:48:44;2.42;;;0.60;;
32250;SDS011;41295;48.518;9.206;2023-08-06T06:50:47;2.28;;;0.60;;
32250;SDS011;41295;48.518;9.206;2023-08-06T06:52:50;2.30;;;0.60;;
32250;SDS011;41295;48.518;9.206;2023-08-06T06:54:53;1.35;;;0.60;;
32250;SDS011;41295;48.518;9.206;2023-08-06T06:56:55;2.40;;;0.70;;
32250;SDS011;41295;48.518;9.206;2023-08-06T06:58:58;1.60;;;0.50;;
32250;SDS011;41295;48.518;9.206;2023-08-06T07:01:00;1.13;;;0.57;;
32250;SDS011;41295;48.518;9.206;2023-08-06T07:03:03;1.45;;;0.60;;
32250;SDS011;41295;48.518;9.206;2023-08-06T07:05:07;1.60;;;0.80;;
32250;SDS011;41295;48.518;9.206;2023-08-06T07:07:10;1.42;;;0.70;;
32250;SDS011;41295;48.518;9.206;2023-08-06T07:09:13;1.55;;;0.50;;
32250;SDS011;41295;48.518;9.206;2023-08-06T07:11:16;1.30;;;0.60;;
32250;SDS011;41295;48.518;9.206;2023-08-06T07:13:18;1.17;;;0.60;;
32250;SDS011;41295;48.518;9.206;2023-08-06T07:15:21;0.80;;;0.45;;
32250;SDS011;41295;48.518;9.206;2023-08-06T07:17:23;0.70;;;0.40;;
32250;SDS011;41295;48.518;9.206;2023-08-06T07:19:26;0.60;;;0.55;;
32250;SDS011;41295;48.518;9.206;2023-08-06T07:21:30;2.20;;;0.50;;
32250;SDS011;41295;48.518;9.206;2023-08-06T07:23:33;2.50;;;0.43;;
32250;SDS011;41295;48.518;9.206;2023-08-06T07:25:36;0.80;;;0.75;;
32250;SDS011;41295;48.518;9.206;2023-08-06T07:27:39;1.00;;;0.63;;
32250;SDS011;41295;48.518;9.206;2023-08-06T07:29:41;1.10;;;0.45;;
32250;SDS011;41295;48.518;9.206;2023-08-06T07:31:44;0.80;;;0.50;;
32250;SDS011;41295;48.518;9.206;2023-08-06T07:33:47;1.00;;;0.32;;
32250;SDS011;41295;48.518;9.206;2023-08-06T07:35:49;2.17;;;0.40;;
32250;SDS011;41295;48.518;9.206;2023-08-06T07:37:54;3.22;;;0.50;;
32250;SDS011;41295;48.518;9.206;2023-08-06T07:39:57;0.88;;;0.47;;
32250;SDS011;41295;48.518;9.206;2023-08-06T07:41:59;2.35;;;0.50;;
32250;SDS011;41295;48.518;9.206;2023-08-06T07:44:03;1.33;;;0.50;;
32250;SDS011;41295;48.518;9.206;2023-08-06T07:46:06;0.80;;;0.22;;
32250;SDS011;41295;48.518;9.206;2023-08-06T07:48:09;0.57;;;0.30;;
32250;SDS011;41295;48.518;9.206;2023-08-06T07:50:12;0.38;;;0.38;;
32250;SDS011;41295;48.518;9.206;2023-08-06T07:52:14;0.80;;;0.32;;
32250;SDS011;41295;48.518;9.206;2023-08-06T07:54:18;1.20;;;0.40;;
32250;SDS011;41295;48.518;9.206;2023-08-06T07:56:21;5.53;;;0.30;;
32250;SDS011;41295;48.518;9.206;2023-08-06T07:58:24;0.65;;;0.43;;
32250;SDS011;41295;48.518;9.206;2023-08-06T08:00:27;0.90;;;0.50;;
32250;SDS011;41295;48.518;9.206;2023-08-06T08:02:36;1.67;;;0.30;;
32250;SDS011;41295;48.518;9.206;2023-08-06T08:04:39;0.40;;;0.30;;
32250;SDS011;41295;48.518;9.206;2023-08-06T08:06:41;2.70;;;0.35;;
32250;SDS011;41295;48.518;9.206;2023-08-06T08:08:44;0.70;;;0.22;;
32250;SDS011;41295;48.518;9.206;2023-08-06T08:10:48;1.27;;;0.40;;
32250;SDS011;41295;48.518;9.206;2023-08-06T08:12:51;0.50;;;0.40;;
32250;SDS011;41295;48.518;9.206;2023-08-06T08:14:53;2.38;;;0.30;;
32250;SDS011;41295;48.518;9.206;2023-08-06T08:16:56;0.40;;;0.30;;
32250;SDS011;41295;48.518;9.206;2023-08-06T08:18:57;0.70;;;0.40;;
32250;SDS011;41295;48.518;9.206;2023-08-06T08:21:00;0.20;;;0.20;;
32250;SDS011;41295;48.518;9.206;2023-08-06T08:23:03;0.90;;;0.47;;
32250;SDS011;41295;48.518;9.206;2023-08-06T08:25:06;0.50;;;0.30;;
32250;SDS011;41295;48.518;9.206;2023-08-06T08:27:10;0.45;;;0.20;;
32250;SDS011;41295;48.518;9.206;2023-08-06T08:29:12;0.20;;;0.20;;
32250;SDS011;41295;48.518;9.206;2023-08-06T08:31:15;0.40;;;0.20;;
32250;SDS011;41295;48.518;9.206;2023-08-06T08:33:18;1.05;;;0.20;;
32250;SDS011;41295;48.518;9.206;2023-08-06T08:35:20;0.17;;;0.17;;
32250;SDS011;41295;48.518;9.206;2023-08-06T08:37:23;0.68;;;0.30;;
32250;SDS011;41295;48.518;9.206;2023-08-06T08:39:26;0.20;;;0.20;;
32250;SDS011;41295;48.518;9.206;2023-08-06T08:41:29;0.22;;;0.22;;
32250;SDS011;41295;48.518;9.206;2023-08-06T08:43:34;0.30;;;0.30;;
32250;SDS011;41295;48.518;9.206;2023-08-06T08:45:38;0.75;;;0.20;;
32250;SDS011;41295;48.518;9.206;2023-08-06T08:47:42;0.25;;;0.20;;
32250;SDS011;41295;48.518;9.206;2023-08-06T08:49:45;0.40;;;0.20;;
32250;SDS011;41295;48.518;9.206;2023-08-06T08:51:49;0.30;;;0.20;;
32250;SDS011;41295;48.518;9.206;2023-08-06T08:53:55;1.75;;;0.28;;
32250;SDS011;41295;48.518;9.206;2023-08-06T08:55:58;0.20;;;0.20;;
32250;SDS011;41295;48.518;9.206;2023-08-06T08:58:01;0.50;;;0.28;;
32250;SDS011;41295;48.518;9.206;2023-08-06T09:00:06;0.45;;;0.22;;
32250;SDS011;41295;48.518;9.206;2023-08-06T09:02:09;2.53;;;0.30;;
32250;SDS011;41295;48.518;9.206;2023-08-06T09:04:15;0.85;;;0.20;;
32250;SDS011;41295;48.518;9.206;2023-08-06T09:06:18;0.75;;;0.40;;
32250;SDS011;41295;48.518;9.206;2023-08-06T09:08:24;0.45;;;0.28;;
32250;SDS011;41295;48.518;9.206;2023-08-06T09:10:30;1.55;;;0.20;;
32250;SDS011;41295;48.518;9.206;2023-08-06T09:12:33;0.10;;;0.10;;
32250;SDS011;41295;48.518;9.206;2023-08-06T09:14:35;0.40;;;0.20;;
32250;SDS011;41295;48.518;9.206;2023-08-06T09:18:41;1.58;;;0.20;;
32250;SDS011;41295;48.518;9.206;2023-08-06T09:20:43;1.25;;;0.20;;
32250;SDS011;41295;48.518;9.206;2023-08-06T09:22:46;2.42;;;0.40;;
32250;SDS011;41295;48.518;9.206;2023-08-06T09:24:50;2.45;;;0.30;;
32250;SDS011;41295;48.518;9.206;2023-08-06T09:26:53;0.20;;;0.15;;
32250;SDS011;41295;48.518;9.206;2023-08-06T09:28:55;0.60;;;0.30;;
32250;SDS011;41295;48.518;9.206;2023-08-06T09:31:02;1.15;;;0.30;;
32250;SDS011;41295;48.518;9.206;2023-08-06T09:33:08;0.20;;;0.20;;
32250;SDS011;41295;48.518;9.206;2023-08-06T09:35:15;0.55;;;0.32;;
32250;SDS011;41295;48.518;9.206;2023-08-06T09:37:18;0.13;;;0.13;;
32250;SDS011;41295;48.518;9.206;2023-08-06T09:39:22;0.43;;;0.20;;
32250;SDS011;41295;48.518;9.206;2023-08-06T09:41:29;0.47;;;0.20;;
32250;SDS011;41295;48.518;9.206;2023-08-06T09:43:39;0.98;;;0.40;;
32250;SDS011;41295;48.518;9.206;2023-08-06T09:45:42;1.88;;;0.40;;
32250;SDS011;41295;48.518;9.206;2023-08-06T09:47:45;0.30;;;0.30;;
32250;SDS011;41295;48.518;9.206;2023-08-06T09:49:50;2.05;;;0.30;;
32250;SDS011;41295;48.518;9.206;2023-08-06T09:51:53;2.28;;;0.30;;
32250;SDS011;41295;48.518;9.206;2023-08-06T09:53:57;0.88;;;0.20;;
32250;SDS011;41295;48.518;9.206;2023-08-06T09:56:07;0.20;;;0.20;;
32250;SDS011;41295;48.518;9.206;2023-08-06T09:58:11;0.90;;;0.20;;
32250;SDS011;41295;48.518;9.206;2023-08-06T10:00:15;0.73;;;0.20;;
32250;SDS011;41295;48.518;9.206;2023-08-06T10:02:18;0.85;;;0.30;;
32250;SDS011;41295;48.518;9.206;2023-08-06T10:04:23;0.20;;;0.20;;
32250;SDS011;41295;48.518;9.206;2023-08-06T10:06:40;0.17;;;0.17;;
32250;SDS011;41295;48.518;9.206;2023-08-06T10:08:42;4.57;;;0.20;;
32250;SDS011;41295;48.518;9.206;2023-08-06T10:10:46;0.93;;;0.20;;
32250;SDS011;41295;48.518;9.206;2023-08-06T10:12:48;0.10;;;0.10;;
32250;SDS011;41295;48.518;9.206;2023-08-06T10:14:54;1.08;;;0.30;;
32250;SDS011;41295;48.518;9.206;2023-08-06T10:16:59;0.70;;;0.30;;
32250;SDS011;41295;48.518;9.206;2023-08-06T10:19:03;0.57;;;0.20;;
32250;SDS011;41295;48.518;9.206;2023-08-06T10:21:07;2.00;;;0.28;;
32250;SDS011;41295;48.518;9.206;2023-08-06T10:23:11;1.33;;;0.55;;
32250;SDS011;41295;48.518;9.206;2023-08-06T10:25:16;0.40;;;0.40;;
32250;SDS011;41295;48.518;9.206;2023-08-06T10:27:19;1.10;;;0.38;;
32250;SDS011;41295;48.518;9.206;2023-08-06T10:29:34;0.30;;;0.30;;
32250;SDS011;41295;48.518;9.206;2023-08-06T10:31:53;1.35;;;0.30;;
32250;SDS011;41295;48.518;9.206;2023-08-06T10:33:56;0.75;;;0.30;;
32250;SDS011;41295;48.518;9.206;2023-08-06T10:36:00;1.27;;;0.30;;
32250;SDS011;41295;48.518;9.206;2023-08-06T10:38:08;1.75;;;0.30;;
32250;SDS011;41295;48.518;9.206;2023-08-06T10:40:12;0.45;;;0.32;;
32250;SDS011;41295;48.518;9.206;2023-08-06T10:42:26;0.20;;;0.20;;
32250;SDS011;41295;48.518;9.206;2023-08-06T10:44:30;0.40;;;0.30;;
32250;SDS011;41295;48.518;9.206;2023-08-06T10:46:33;0.60;;;0.30;;
32250;SDS011;41295;48.518;9.206;2023-08-06T10:48:36;2.05;;;0.43;;
32250;SDS011;41295;48.518;9.206;2023-08-06T10:50:40;2.95;;;0.50;;
32250;SDS011;41295;48.518;9.206;2023-08-06T10:52:43;0.38;;;0.28;;
32250;SDS011;41295;48.518;9.206;2023-08-06T10:54:47;1.02;;;0.30;;
32250;SDS011;41295;48.518;9.206;2023-08-06T10:56:51;0.20;;;0.20;;
32250;SDS011;41295;48.518;9.206;2023-08-06T10:58:54;1.77;;;0.35;;
32250;SDS011;41295;48.518;9.206;2023-08-06T11:00:58;0.30;;;0.30;;
32250;SDS011;41295;48.518;9.206;2023-08-06T11:03:00;0.35;;;0.30;;
32250;SDS011;41295;48.518;9.206;2023-08-06T11:05:07;0.20;;;0.20;;
32250;SDS011;41295;48.518;9.206;2023-08-06T11:07:10;0.93;;;0.30;;
32250;SDS011;41295;48.518;9.206;2023-08-06T11:09:13;0.17;;;0.17;;
32250;SDS011;41295;48.518;9.206;2023-08-06T11:11:16;0.20;;;0.20;;
32250;SDS011;41295;48.518;9.206;2023-08-06T11:13:21;0.30;;;0.30;;
32250;SDS011;41295;48.518;9.206;2023-08-06T11:15:24;0.77;;;0.20;;
32250;SDS011;41295;48.518;9.206;2023-08-06T11:17:27;0.50;;;0.50;;
32250;SDS011;41295;48.518;9.206;2023-08-06T11:19:30;3.03;;;0.30;;
32250;SDS011;41295;48.518;9.206;2023-08-06T11:21:33;0.70;;;0.32;;
32250;SDS011;41295;48.518;9.206;2023-08-06T11:23:36;0.50;;;0.30;;
32250;SDS011;41295;48.518;9.206;2023-08-06T11:25:43;1.27;;;0.40;;
32250;SDS011;41295;48.518;9.206;2023-08-06T11:27:47;0.60;;;0.30;;
32250;SDS011;41295;48.518;9.206;2023-08-06T11:29:51;0.70;;;0.50;;
32250;SDS011;41295;48.518;9.206;2023-08-06T11:32:02;2.22;;;0.30;;
32250;SDS011;41295;48.518;9.206;2023-08-06T11:34:06;1.85;;;0.50;;
32250;SDS011;41295;48.518;9.206;2023-08-06T11:36:15;0.95;;;0.50;;
32250;SDS011;41295;48.518;9.206;2023-08-06T11:38:48;0.52;;;0.40;;
32250;SDS011;41295;48.518;9.206;2023-08-06T11:41:04;0.47;;;0.30;;
32250;SDS011;41295;48.518;9.206;2023-08-06T11:43:52;0.75;;;0.25;;
32250;SDS011;41295;48.518;9.206;2023-08-06T11:45:57;0.65;;;0.50;;
32250;SDS011;41295;48.518;9.206;2023-08-06T11:48:01;2.83;;;0.30;;
32250;SDS011;41295;48.518;9.206;2023-08-06T11:50:27;0.50;;;0.38;;
32250;SDS011;41295;48.518;9.206;2023-08-06T11:52:56;0.90;;;0.50;;
32250;SDS011;41295;48.518;9.206;2023-08-06T11:55:01;0.40;;;0.28;;
32250;SDS011;41295;48.518;9.206;2023-08-06T11:57:05;1.33;;;1.20;;
32250;SDS011;41295;48.518;9.206;2023-08-06T11:59:08;3.05;;;2.15;;
32250;SDS011;41295;48.518;9.206;2023-08-06T12:01:15;3.80;;;2.92;;
32250;SDS011;41295;48.518;9.206;2023-08-06T12:03:18;2.03;;;1.58;;
32250;SDS011;41295;48.518;9.206;2023-08-06T12:05:21;0.43;;;0.43;;
32250;SDS011;41295;48.518;9.206;2023-08-06T12:07:26;1.35;;;0.73;;
32250;SDS011;41295;48.518;9.206;2023-08-06T12:09:30;2.28;;;0.50;;
32250;SDS011;41295;48.518;9.206;2023-08-06T12:11:32;0.57;;;0.57;;
32250;SDS011;41295;48.518;9.206;2023-08-06T12:13:42;1.08;;;0.80;;
32250;SDS011;41295;48.518;9.206;2023-08-06T12:15:46;1.58;;;1.48;;
32250;SDS011;41295;48.518;9.206;2023-08-06T12:17:55;1.65;;;0.68;;
32250;SDS011;41295;48.518;9.206;2023-08-06T12:20:01;0.50;;;0.40;;
32250;SDS011;41295;48.518;9.206;2023-08-06T12:22:09;0.50;;;0.40;;
32250;SDS011;41295;48.518;9.206;2023-08-06T12:24:15;0.30;;;0.30;;
32250;SDS011;41295;48.518;9.206;2023-08-06T12:26:22;0.57;;;0.50;;
32250;SDS011;41295;48.518;9.206;2023-08-06T12:28:25;0.55;;;0.55;;
32250;SDS011;41295;48.518;9.206;2023-08-06T12:30:31;0.47;;;0.30;;
32250;SDS011;41295;48.518;9.206;2023-08-06T12:32:58;1.10;;;0.57;;
32250;SDS011;41295;48.518;9.206;2023-08-06T12:35:10;0.40;;;0.40;;
32250;SDS011;41295;48.518;9.206;2023-08-06T12:37:19;0.70;;;0.70;;
32250;SDS011;41295;48.518;9.206;2023-08-06T12:39:24;2.00;;;0.60;;
32250;SDS011;41295;48.518;9.206;2023-08-06T12:41:47;1.60;;;0.90;;
32250;SDS011;41295;48.518;9.206;2023-08-06T12:43:55;2.47;;;1.00;;